Time;durP1;ratioP1;P1;durP2;ratioP2;P2;SDS_P1;SDS_P2;PMS_P1;PMS_P2;Temp;Humidity;BMP_temperature;BMP_pressure;BME280_temperature;BME280_humidity;BME280_pressure;Samples;Min_cycle;Max_cycle;Signal;HPM_P1;HPM_P2
2022/08/19 00:01:24;;;;;;;13.05;8.93;;;;;;;;;;5074481;28;20020;-81
2022/08/19 00:03:50;;;;;;;15.60;9.95;;;;;;;;;;5082877;28;20059;-82
2022/08/19 00:06:16;;;;;;;12.77;8.85;;;;;;;;;;5078239;28;20537;-81
2022/08/19 00:08:41;;;;;;;13.35;8.95;;;;;;;;;;5082119;28;20028;-81
2022/08/19 00:11:07;;;;;;;12.23;9.10;;;;;;;;;;5069081;28;20026;-82
2022/08/19 00:13:33;;;;;;;13.82;8.88;;;;;;;;;;5085799;28;20039;-81
2022/08/19 00:15:59;;;;;;;13.43;9.18;;;;;;;;;;5089003;28;20039;-81
2022/08/19 00:18:25;;;;;;;15.25;9.68;;;;;;;;;;5099110;28;20039;-81
2022/08/19 00:20:51;;;;;;;15.45;9.10;;;;;;;;;;5091250;28;20489;-80
2022/08/19 00:23:16;;;;;;;14.50;9.18;;;;;;;;;;5098607;28;20040;-80
2022/08/19 00:25:42;;;;;;;14.50;9.52;;;;;;;;;;5084461;28;20093;-81
2022/08/19 00:28:07;;;;;;;14.90;9.68;;;;;;;;;;5080772;28;20092;-82
2022/08/19 00:30:32;;;;;;;14.98;9.35;;;;;;;;;;5100025;28;20020;-82
2022/08/19 00:32:58;;;;;;;13.60;9.10;;;;;;;;;;5088281;28;20016;-81
2022/08/19 00:35:23;;;;;;;17.70;7.95;;;;;;;;;;5073162;28;20021;-80
2022/08/19 00:37:49;;;;;;;14.50;9.23;;;;;;;;;;5059502;28;20027;-83
2022/08/19 00:40:16;;;;;;;11.98;8.68;;;;;;;;;;5079045;28;20451;-82
2022/08/19 00:42:43;;;;;;;13.15;9.05;;;;;;;;;;5073033;28;20032;-79
2022/08/19 00:45:13;;;;;;;18.88;10.40;;;;;;;;;;5102811;28;20020;-80
2022/08/19 00:47:39;;;;;;;14.10;9.13;;;;;;;;;;5088561;28;20528;-82
2022/08/19 00:50:06;;;;;;;16.48;9.90;;;;;;;;;;5094842;28;20031;-82
2022/08/19 00:52:39;;;;;;;13.30;8.98;;;;;;;;;;5100473;28;20095;-81
2022/08/19 00:55:10;;;;;;;16.00;9.57;;;;;;;;;;5089278;28;20603;-80
2022/08/19 00:57:39;;;;;;;14.85;9.23;;;;;;;;;;5102151;28;20434;-80
2022/08/19 01:00:13;;;;;;;14.77;10.13;;;;;;;;;;5079860;28;20014;-82
2022/08/19 01:02:39;;;;;;;12.98;9.18;;;;;;;;;;5103496;28;20054;-81
2022/08/19 01:05:08;;;;;;;14.20;9.82;;;;;;;;;;5104022;28;20449;-82
2022/08/19 01:07:34;;;;;;;14.52;8.93;;;;;;;;;;5084266;28;20043;-81
2022/08/19 01:10:00;;;;;;;13.07;8.77;;;;;;;;;;5084961;28;20052;-82
2022/08/19 01:12:26;;;;;;;12.68;9.02;;;;;;;;;;5087848;28;20045;-82
2022/08/19 01:14:53;;;;;;;14.90;9.25;;;;;;;;;;5078574;28;20103;-81
2022/08/19 01:17:19;;;;;;;14.95;9.30;;;;;;;;;;5079642;28;20031;-81
2022/08/19 01:19:46;;;;;;;16.10;9.27;;;;;;;;;;5090242;28;20032;-81
2022/08/19 01:22:18;;;;;;;14.38;9.75;;;;;;;;;;5092200;28;20028;-82
2022/08/19 01:24:44;;;;;;;15.50;9.60;;;;;;;;;;5078885;28;20082;-82
2022/08/19 01:27:09;;;;;;;15.55;9.90;;;;;;;;;;5079002;28;20040;-80
2022/08/19 01:29:40;;;;;;;18.92;10.70;;;;;;;;;;5078270;28;20092;-79
2022/08/19 01:32:08;;;;;;;20.80;11.40;;;;;;;;;;5098023;28;20079;-80
2022/08/19 01:34:33;;;;;;;19.95;10.63;;;;;;;;;;5093688;28;20017;-81
2022/08/19 01:37:01;;;;;;;18.77;11.13;;;;;;;;;;5096634;28;20509;-80
2022/08/19 01:39:28;;;;;;;14.93;9.95;;;;;;;;;;5097417;28;20050;-80
2022/08/19 01:41:54;;;;;;;14.88;10.65;;;;;;;;;;5097683;28;20024;-81
2022/08/19 01:44:23;;;;;;;15.55;10.48;;;;;;;;;;5102102;28;20024;-82
2022/08/19 01:46:50;;;;;;;15.30;10.82;;;;;;;;;;5077458;28;20038;-81
2022/08/19 01:49:18;;;;;;;15.90;10.90;;;;;;;;;;5094747;28;20035;-82
2022/08/19 01:51:43;;;;;;;16.10;10.80;;;;;;;;;;5094732;28;20373;-82
2022/08/19 01:54:11;;;;;;;18.83;11.45;;;;;;;;;;5101969;28;20485;-81
2022/08/19 01:56:36;;;;;;;17.17;11.13;;;;;;;;;;5104283;28;20028;-81
2022/08/19 01:59:05;;;;;;;18.23;11.00;;;;;;;;;;5094122;28;20039;-82
2022/08/19 02:01:34;;;;;;;20.55;10.88;;;;;;;;;;5080954;28;20028;-80
2022/08/19 02:04:02;;;;;;;19.25;11.38;;;;;;;;;;5091204;28;20028;-82
2022/08/19 02:06:28;;;;;;;18.58;12.40;;;;;;;;;;5099807;28;20016;-82
2022/08/19 02:08:54;;;;;;;18.52;11.73;;;;;;;;;;5103129;28;20032;-82
2022/08/19 02:11:22;;;;;;;21.27;12.48;;;;;;;;;;5093753;28;20029;-80
2022/08/19 02:13:49;;;;;;;18.33;11.27;;;;;;;;;;5081570;28;20044;-81
2022/08/19 02:16:15;;;;;;;18.75;11.75;;;;;;;;;;5079609;28;20020;-82
2022/08/19 02:18:40;;;;;;;17.48;11.48;;;;;;;;;;5067031;28;20512;-82
2022/08/19 02:21:06;;;;;;;18.20;12.20;;;;;;;;;;5076663;28;20015;-80
2022/08/19 02:23:31;;;;;;;19.25;12.68;;;;;;;;;;5102247;28;20031;-80
2022/08/19 02:25:56;;;;;;;19.10;12.63;;;;;;;;;;5093616;28;20066;-80
2022/08/19 02:28:22;;;;;;;17.83;11.80;;;;;;;;;;5096997;28;20028;-82
2022/08/19 02:30:48;;;;;;;20.40;12.38;;;;;;;;;;5087691;28;20028;-81
2022/08/19 02:33:13;;;;;;;20.00;12.25;;;;;;;;;;5081759;28;20055;-81
2022/08/19 02:35:46;;;;;;;20.40;12.73;;;;;;;;;;5094555;28;20039;-81
2022/08/19 02:38:26;;;;;;;20.73;12.75;;;;;;;;;;5093975;28;20027;-81
2022/08/19 02:40:57;;;;;;;23.17;14.07;;;;;;;;;;5094649;28;20020;-80
2022/08/19 02:43:24;;;;;;;24.00;12.93;;;;;;;;;;5074146;28;20035;-81
2022/08/19 02:45:51;;;;;;;23.85;14.48;;;;;;;;;;5079386;28;20025;-81
2022/08/19 02:48:18;;;;;;;20.42;12.60;;;;;;;;;;5097285;28;20032;-81
2022/08/19 02:50:44;;;;;;;18.85;12.75;;;;;;;;;;5089018;28;20029;-79
2022/08/19 02:53:10;;;;;;;18.08;12.68;;;;;;;;;;5097309;28;20557;-81
2022/08/19 02:55:36;;;;;;;17.88;12.25;;;;;;;;;;5096869;28;20059;-79
2022/08/19 02:58:01;;;;;;;22.58;13.05;;;;;;;;;;5079855;28;20028;-81
2022/08/19 03:00:27;;;;;;;21.98;12.93;;;;;;;;;;5093785;28;20028;-78
2022/08/19 03:02:53;;;;;;;22.58;13.70;;;;;;;;;;5079292;28;20039;-79
2022/08/19 03:05:19;;;;;;;21.45;12.68;;;;;;;;;;5097236;28;20034;-82
2022/08/19 03:07:46;;;;;;;19.40;13.18;;;;;;;;;;5084400;28;20048;-81
2022/08/19 03:10:12;;;;;;;21.52;13.05;;;;;;;;;;5101872;28;20023;-80
2022/08/19 03:12:38;;;;;;;23.30;13.60;;;;;;;;;;5077634;28;20024;-80
2022/08/19 03:15:07;;;;;;;21.60;12.68;;;;;;;;;;5077969;28;20436;-80
2022/08/19 03:17:36;;;;;;;23.10;13.35;;;;;;;;;;5078739;28;20084;-82
2022/08/19 03:20:01;;;;;;;19.23;13.05;;;;;;;;;;5073927;28;20012;-82
2022/08/19 03:22:27;;;;;;;22.08;14.65;;;;;;;;;;5097275;28;20039;-82
2022/08/19 03:24:53;;;;;;;23.48;13.57;;;;;;;;;;5098721;28;20024;-81
2022/08/19 03:27:18;;;;;;;27.10;14.15;;;;;;;;;;5099710;28;20020;-82
2022/08/19 03:29:44;;;;;;;23.55;14.82;;;;;;;;;;5077984;28;20385;-79
2022/08/19 03:32:10;;;;;;;22.40;14.88;;;;;;;;;;5079279;28;20024;-82
2022/08/19 03:34:37;;;;;;;23.00;14.18;;;;;;;;;;5053434;28;20458;-80
2022/08/19 03:37:07;;;;;;;21.33;14.70;;;;;;;;;;5096182;28;20046;-81
2022/08/19 03:39:33;;;;;;;20.20;13.30;;;;;;;;;;5092964;28;20020;-81
2022/08/19 03:42:02;;;;;;;21.65;13.20;;;;;;;;;;5097391;28;20212;-82
2022/08/19 03:44:28;;;;;;;22.65;14.43;;;;;;;;;;5098776;28;20027;-80
2022/08/19 03:46:56;;;;;;;21.33;14.38;;;;;;;;;;5093510;28;20473;-83
2022/08/19 03:49:24;;;;;;;20.20;13.75;;;;;;;;;;5101667;28;20035;-81
2022/08/19 03:51:50;;;;;;;24.77;14.60;;;;;;;;;;5100083;28;20020;-80
2022/08/19 03:54:18;;;;;;;23.25;15.63;;;;;;;;;;5084314;28;20031;-80
2022/08/19 03:56:46;;;;;;;24.13;15.00;;;;;;;;;;5079747;28;20055;-80
2022/08/19 03:59:16;;;;;;;22.75;15.38;;;;;;;;;;5103535;28;20083;-78
2022/08/19 04:01:42;;;;;;;23.80;15.15;;;;;;;;;;5106290;28;20024;-79
2022/08/19 04:04:07;;;;;;;19.58;14.32;;;;;;;;;;5118587;28;20028;-77
2022/08/19 04:06:35;;;;;;;22.98;15.55;;;;;;;;;;5104311;28;20029;-77
2022/08/19 04:09:04;;;;;;;23.73;16.02;;;;;;;;;;5082696;28;20054;-77
2022/08/19 04:11:35;;;;;;;24.33;16.38;;;;;;;;;;5098992;28;20052;-79
2022/08/19 04:14:00;;;;;;;25.65;15.70;;;;;;;;;;5087086;28;20039;-79
2022/08/19 04:16:28;;;;;;;21.55;13.98;;;;;;;;;;5080918;28;20068;-79
2022/08/19 04:18:55;;;;;;;23.65;15.18;;;;;;;;;;5107472;28;20329;-77
2022/08/19 04:21:23;;;;;;;26.00;15.88;;;;;;;;;;5113557;28;20160;-77
2022/08/19 04:23:49;;;;;;;28.25;16.35;;;;;;;;;;5105303;28;20023;-80
2022/08/19 04:26:16;;;;;;;22.10;15.60;;;;;;;;;;5104824;28;20028;-81
2022/08/19 04:28:43;;;;;;;24.48;15.98;;;;;;;;;;5094505;28;20020;-80
2022/08/19 04:31:18;;;;;;;24.10;15.98;;;;;;;;;;5104869;28;20020;-81
2022/08/19 04:33:44;;;;;;;20.80;15.30;;;;;;;;;;5097071;28;20490;-81
2022/08/19 04:36:25;;;;;;;24.90;15.80;;;;;;;;;;5097684;28;20030;-79
2022/08/19 04:38:54;;;;;;;23.50;14.60;;;;;;;;;;5095957;28;20031;-80
2022/08/19 04:44:04;;;;;;;22.63;15.48;;;;;;;;;;5097235;28;20077;-80
2022/08/19 04:46:31;;;;;;;21.77;15.05;;;;;;;;;;5099302;28;20028;-81
2022/08/19 04:48:58;;;;;;;24.85;15.48;;;;;;;;;;5081052;28;20106;-79
2022/08/19 04:51:24;;;;;;;21.80;15.43;;;;;;;;;;5086195;28;20054;-78
2022/08/19 04:53:52;;;;;;;20.52;14.63;;;;;;;;;;5097652;28;20024;-81
2022/08/19 04:56:21;;;;;;;21.50;15.43;;;;;;;;;;5100513;28;20078;-80
2022/08/19 04:58:47;;;;;;;24.15;15.40;;;;;;;;;;5080918;28;20043;-79
2022/08/19 05:01:17;;;;;;;21.27;15.23;;;;;;;;;;5100085;22;20398;-87
2022/08/19 05:03:42;;;;;;;20.60;14.75;;;;;;;;;;5081848;28;20366;-87
2022/08/19 05:06:11;;;;;;;24.60;14.90;;;;;;;;;;5080755;28;20049;-87
2022/08/19 05:08:40;;;;;;;21.10;15.05;;;;;;;;;;5091756;28;20091;-86
2022/08/19 05:11:16;;;;;;;22.50;15.20;;;;;;;;;;5101092;28;20473;-86
2022/08/19 05:13:43;;;;;;;23.52;15.13;;;;;;;;;;5101073;28;20023;-86
2022/08/19 05:16:10;;;;;;;23.30;15.75;;;;;;;;;;5101270;28;20024;-86
2022/08/19 05:24:08;;;;;;;26.52;15.52;;;;;;;;;;5086258;28;20035;-86
2022/08/19 05:26:38;;;;;;;22.20;15.75;;;;;;;;;;5089979;28;20031;-86
2022/08/19 05:29:04;;;;;;;24.83;15.68;;;;;;;;;;5063821;28;20019;-86
2022/08/19 05:31:30;;;;;;;21.40;15.75;;;;;;;;;;5099593;28;20488;-85
2022/08/19 05:33:58;;;;;;;22.10;16.40;;;;;;;;;;5100335;28;20470;-86
2022/08/19 05:36:24;;;;;;;21.75;14.80;;;;;;;;;;5072217;28;20054;-86
2022/08/19 05:38:51;;;;;;;23.40;15.45;;;;;;;;;;5089297;28;20444;-85
2022/08/19 05:41:17;;;;;;;26.27;15.68;;;;;;;;;;5084042;28;20530;-86
2022/08/19 05:44:09;;;;;;;25.02;16.77;;;;;;;;;;5073567;28;20036;-86
2022/08/19 05:46:37;;;;;;;24.20;15.48;;;;;;;;;;5077360;28;20035;-87
2022/08/19 05:49:06;;;;;;;25.15;15.38;;;;;;;;;;5073943;28;20389;-87
2022/08/19 05:51:33;;;;;;;22.73;16.33;;;;;;;;;;5101969;28;20066;-86
2022/08/19 05:54:00;;;;;;;25.77;15.90;;;;;;;;;;5094024;28;20015;-87
2022/08/19 05:56:26;;;;;;;28.13;17.00;;;;;;;;;;5085630;28;20024;-84
2022/08/19 05:58:53;;;;;;;26.55;15.50;;;;;;;;;;5111147;28;20020;-85
2022/08/19 06:01:19;;;;;;;28.15;17.73;;;;;;;;;;5115021;28;20012;-86
2022/08/19 06:03:45;;;;;;;25.40;15.93;;;;;;;;;;5116597;28;20048;-85
2022/08/19 06:06:13;;;;;;;24.05;15.02;;;;;;;;;;5075737;28;20031;-87
2022/08/19 06:08:39;;;;;;;22.23;15.57;;;;;;;;;;5107699;28;20035;-85
2022/08/19 06:11:37;;;;;;;29.85;16.33;;;;;;;;;;5090855;28;20019;-85
2022/08/19 06:14:07;;;;;;;21.40;15.82;;;;;;;;;;5092152;28;20435;-85
2022/08/19 06:16:34;;;;;;;24.63;14.65;;;;;;;;;;5084721;28;20022;-85
2022/08/19 06:19:02;;;;;;;25.45;15.07;;;;;;;;;;5076151;28;20023;-85
2022/08/19 06:21:30;;;;;;;23.20;15.63;;;;;;;;;;5094087;28;20028;-87
2022/08/19 06:23:56;;;;;;;27.80;16.13;;;;;;;;;;5083627;28;20099;-87
2022/08/19 06:26:22;;;;;;;22.48;15.02;;;;;;;;;;5102016;28;20745;-86
2022/08/19 06:28:48;;;;;;;23.55;15.52;;;;;;;;;;5079230;28;20020;-86
2022/08/19 06:31:22;;;;;;;21.67;14.80;;;;;;;;;;5076397;28;20016;-86
2022/08/19 06:33:48;;;;;;;29.20;14.80;;;;;;;;;;5093308;28;20473;-86
2022/08/19 06:36:33;;;;;;;24.58;15.15;;;;;;;;;;5095076;28;20028;-85
2022/08/19 06:39:00;;;;;;;21.52;14.68;;;;;;;;;;5097272;28;20024;-85
2022/08/19 06:41:26;;;;;;;26.13;15.20;;;;;;;;;;5114654;28;20028;-86
2022/08/19 06:43:52;;;;;;;23.23;15.70;;;;;;;;;;5112115;28;20064;-85
2022/08/19 06:46:19;;;;;;;28.70;16.50;;;;;;;;;;5115299;28;20012;-86
2022/08/19 06:48:45;;;;;;;21.30;14.60;;;;;;;;;;5075751;28;20005;-84
2022/08/19 06:51:15;;;;;;;22.55;14.23;;;;;;;;;;5079179;28;20013;-86
2022/08/19 06:53:41;;;;;;;24.10;15.68;;;;;;;;;;5086346;28;20032;-87
2022/08/19 06:56:06;;;;;;;22.58;15.63;;;;;;;;;;5061376;28;20052;-86
2022/08/19 06:58:32;;;;;;;25.42;15.38;;;;;;;;;;5079893;28;20053;-85
2022/08/19 07:01:02;;;;;;;22.55;14.70;;;;;;;;;;5066210;28;20044;-85
2022/08/19 07:03:33;;;;;;;22.23;14.77;;;;;;;;;;5095089;28;20019;-87
2022/08/19 07:06:11;;;;;;;21.63;14.98;;;;;;;;;;5083306;28;20031;-87
2022/08/19 07:08:40;;;;;;;23.67;15.60;;;;;;;;;;5047592;28;20573;-86
2022/08/19 07:11:10;;;;;;;22.77;15.27;;;;;;;;;;5061140;28;20029;-87
2022/08/19 07:13:37;;;;;;;26.67;15.18;;;;;;;;;;5076355;28;20024;-86
2022/08/19 07:16:15;;;;;;;27.17;14.38;;;;;;;;;;5098742;28;20020;-87
2022/08/19 07:18:40;;;;;;;30.10;14.60;;;;;;;;;;5071126;28;20028;-86
2022/08/19 07:21:10;;;;;;;21.65;14.60;;;;;;;;;;5077010;28;20487;-86
2022/08/19 07:23:35;;;;;;;20.67;14.77;;;;;;;;;;5103354;28;20023;-85
2022/08/19 07:26:10;;;;;;;26.58;14.35;;;;;;;;;;5098524;28;20040;-86
2022/08/19 07:28:38;;;;;;;24.10;14.02;;;;;;;;;;5082667;28;20017;-86
2022/08/19 07:31:07;;;;;;;24.02;14.38;;;;;;;;;;5095071;22;20048;-82
2022/08/19 07:33:35;;;;;;;20.23;12.73;;;;;;;;;;5084120;28;20032;-83
2022/08/19 07:36:01;;;;;;;23.67;14.40;;;;;;;;;;5047345;28;20390;-83
2022/08/19 07:38:26;;;;;;;25.63;13.85;;;;;;;;;;5045053;28;20052;-83
2022/08/19 07:40:51;;;;;;;22.80;13.27;;;;;;;;;;5063277;28;20021;-83
2022/08/19 07:43:24;;;;;;;21.17;13.38;;;;;;;;;;5091141;28;20024;-85
2022/08/19 07:45:50;;;;;;;20.48;13.55;;;;;;;;;;5085599;28;20031;-86
2022/08/19 07:48:16;;;;;;;18.13;13.38;;;;;;;;;;5085777;28;20020;-86
2022/08/19 07:50:41;;;;;;;21.20;13.20;;;;;;;;;;5093572;28;20020;-86
2022/08/19 07:53:06;;;;;;;21.08;12.77;;;;;;;;;;5104154;28;20474;-85
2022/08/19 07:55:33;;;;;;;21.52;13.25;;;;;;;;;;5102820;28;20085;-83
2022/08/19 07:57:59;;;;;;;22.00;13.02;;;;;;;;;;5092089;28;20145;-82
2022/08/19 08:00:26;;;;;;;20.85;12.10;;;;;;;;;;5097701;28;20039;-84
2022/08/19 08:02:52;;;;;;;20.75;12.93;;;;;;;;;;5081297;28;20077;-84
2022/08/19 08:10:45;;;;;;;19.13;11.85;;;;;;;;;;5102948;28;20027;-84
2022/08/19 08:13:11;;;;;;;22.13;12.75;;;;;;;;;;5082748;28;20024;-83
2022/08/19 08:15:38;;;;;;;18.50;13.10;;;;;;;;;;5080899;28;20115;-84
2022/08/19 08:18:04;;;;;;;26.27;12.45;;;;;;;;;;5080786;28;20397;-84
2022/08/19 08:20:30;;;;;;;20.25;12.15;;;;;;;;;;5089338;28;20091;-84
2022/08/19 08:25:39;;;;;;;16.50;11.45;;;;;;;;;;5103332;28;20057;-83
2022/08/19 08:28:04;;;;;;;17.38;11.95;;;;;;;;;;5083856;28;20079;-83
2022/08/19 08:30:32;;;;;;;19.95;13.43;;;;;;;;;;5105805;28;20024;-84
2022/08/19 08:32:57;;;;;;;22.15;11.95;;;;;;;;;;5091028;28;20020;-83
2022/08/19 08:35:24;;;;;;;18.48;12.73;;;;;;;;;;5092150;28;20024;-83
2022/08/19 08:37:51;;;;;;;18.38;12.10;;;;;;;;;;5113891;28;20046;-83
2022/08/19 08:40:40;;;;;;;21.88;12.88;;;;;;;;;;5110903;28;20017;-84
2022/08/19 08:43:17;;;;;;;18.42;12.55;;;;;;;;;;5110530;28;20042;-83
2022/08/19 08:45:48;;;;;;;20.42;12.88;;;;;;;;;;5118459;28;20032;-86
2022/08/19 08:48:23;;;;;;;17.53;11.73;;;;;;;;;;5111727;28;20016;-83
2022/08/19 08:50:52;;;;;;;19.10;13.52;;;;;;;;;;5111124;28;20032;-83
2022/08/19 08:53:19;;;;;;;22.42;12.85;;;;;;;;;;5091638;28;20024;-82
2022/08/19 08:55:45;;;;;;;15.68;10.95;;;;;;;;;;5100283;28;20057;-84
2022/08/19 08:58:20;;;;;;;20.33;11.43;;;;;;;;;;5099457;28;20039;-83
2022/08/19 09:00:48;;;;;;;17.45;12.05;;;;;;;;;;5076738;28;20048;-84
2022/08/19 09:03:25;;;;;;;18.00;11.88;;;;;;;;;;5083682;28;20024;-85
2022/08/19 09:06:00;;;;;;;16.83;11.45;;;;;;;;;;5101342;28;20469;-83
2022/08/19 09:08:44;;;;;;;17.10;11.77;;;;;;;;;;5081554;28;20020;-83
2022/08/19 09:11:19;;;;;;;22.10;11.88;;;;;;;;;;5075670;28;20020;-86
2022/08/19 09:14:19;;;;;;;14.50;10.65;;;;;;;;;;5095162;28;20055;-82
2022/08/19 09:16:45;;;;;;;22.95;10.32;;;;;;;;;;5091276;28;20389;-82
2022/08/19 09:19:10;;;;;;;14.85;9.93;;;;;;;;;;5091011;28;20029;-83
2022/08/19 09:21:36;;;;;;;16.10;10.73;;;;;;;;;;5092795;28;20049;-83
2022/08/19 09:24:02;;;;;;;14.05;9.60;;;;;;;;;;5078332;28;20481;-82
2022/08/19 09:26:27;;;;;;;16.85;10.82;;;;;;;;;;5096188;28;20085;-83
2022/08/19 09:28:54;;;;;;;16.70;10.38;;;;;;;;;;5061227;28;20028;-82
2022/08/19 09:31:23;;;;;;;15.98;10.15;;;;;;;;;;5074083;28;20435;-83
2022/08/19 09:33:49;;;;;;;14.70;10.48;;;;;;;;;;5091181;28;20028;-83
2022/08/19 09:36:18;;;;;;;15.65;9.65;;;;;;;;;;5080066;28;20435;-84
2022/08/19 09:38:44;;;;;;;16.52;10.68;;;;;;;;;;5100433;28;20032;-84
2022/08/19 09:41:16;;;;;;;18.75;9.93;;;;;;;;;;5101198;28;20031;-83
2022/08/19 09:43:45;;;;;;;16.85;10.27;;;;;;;;;;5100337;28;20112;-84
2022/08/19 09:46:11;;;;;;;12.77;9.10;;;;;;;;;;5078030;28;20085;-82
2022/08/19 09:48:38;;;;;;;18.98;9.40;;;;;;;;;;5099981;28;20032;-84
2022/08/19 09:51:11;;;;;;;12.57;8.90;;;;;;;;;;5090796;28;20028;-83
2022/08/19 09:53:37;;;;;;;14.25;9.10;;;;;;;;;;5096666;28;20028;-84
2022/08/19 09:56:04;;;;;;;12.48;8.07;;;;;;;;;;5099768;28;20024;-82
2022/08/19 09:58:30;;;;;;;15.85;8.77;;;;;;;;;;5074883;28;20036;-83
2022/08/19 10:00:57;;;;;;;13.40;9.57;;;;;;;;;;5096857;28;20030;-84
2022/08/19 10:03:22;;;;;;;12.85;9.35;;;;;;;;;;5105228;28;20024;-84
2022/08/19 10:05:48;;;;;;;14.35;9.43;;;;;;;;;;5099392;28;20557;-83
2022/08/19 10:08:15;;;;;;;14.18;9.48;;;;;;;;;;5109216;28;20038;-84
2022/08/19 10:10:44;;;;;;;11.70;9.07;;;;;;;;;;5109509;28;20023;-81
2022/08/19 10:13:10;;;;;;;20.17;10.55;;;;;;;;;;5049563;28;20462;-84
2022/08/19 10:15:39;;;;;;;12.25;8.65;;;;;;;;;;5092113;28;20039;-83
2022/08/19 10:18:04;;;;;;;14.30;8.73;;;;;;;;;;5071248;28;20024;-84
2022/08/19 10:20:30;;;;;;;13.10;9.00;;;;;;;;;;5084731;28;20027;-84
2022/08/19 10:22:55;;;;;;;13.07;8.10;;;;;;;;;;5097655;28;20032;-84
2022/08/19 10:25:20;;;;;;;12.20;7.97;;;;;;;;;;5097263;28;20466;-84
2022/08/19 10:27:46;;;;;;;13.25;8.38;;;;;;;;;;5076295;28;20024;-85
2022/08/19 10:30:12;;;;;;;13.88;8.60;;;;;;;;;;5087694;28;20069;-84
2022/08/19 10:32:37;;;;;;;11.48;7.95;;;;;;;;;;5092901;28;20482;-83
2022/08/19 10:35:08;;;;;;;14.27;7.63;;;;;;;;;;5077674;28;20070;-84
2022/08/19 10:37:36;;;;;;;12.25;8.60;;;;;;;;;;5087872;28;20016;-85
2022/08/19 10:40:04;;;;;;;11.60;8.73;;;;;;;;;;5096114;28;20435;-84
2022/08/19 10:42:31;;;;;;;12.30;7.50;;;;;;;;;;5095730;28;20417;-84
2022/08/19 10:44:56;;;;;;;12.20;7.30;;;;;;;;;;5096215;28;20024;-84
2022/08/19 10:47:22;;;;;;;7.78;6.15;;;;;;;;;;5091121;28;20027;-84
2022/08/19 10:52:36;;;;;;;10.57;6.57;;;;;;;;;;5087666;28;20107;-84
2022/08/19 10:57:52;;;;;;;11.48;6.65;;;;;;;;;;5095523;28;20023;-84
2022/08/19 11:00:18;;;;;;;11.43;7.07;;;;;;;;;;5085417;28;20028;-83
2022/08/19 11:02:44;;;;;;;9.95;6.63;;;;;;;;;;5074824;28;20024;-84
2022/08/19 11:05:12;;;;;;;9.95;5.72;;;;;;;;;;5087795;28;20016;-84
2022/08/19 11:07:39;;;;;;;8.68;6.13;;;;;;;;;;5076653;28;20020;-84
2022/08/19 11:10:05;;;;;;;9.23;6.25;;;;;;;;;;5073073;28;20039;-83
2022/08/19 11:12:30;;;;;;;8.07;6.30;;;;;;;;;;5083808;28;20031;-82
2022/08/19 11:14:55;;;;;;;8.85;6.50;;;;;;;;;;5094671;28;20362;-84
2022/08/19 11:17:23;;;;;;;8.48;5.53;;;;;;;;;;5094628;28;20020;-83
2022/08/19 11:19:49;;;;;;;11.48;6.07;;;;;;;;;;5070019;28;20051;-82
2022/08/19 11:22:15;;;;;;;7.53;5.43;;;;;;;;;;5077078;28;20429;-83
2022/08/19 11:24:40;;;;;;;8.30;5.43;;;;;;;;;;5094533;28;20020;-85
2022/08/19 11:27:08;;;;;;;8.27;5.40;;;;;;;;;;5094576;28;20055;-85
2022/08/19 11:29:36;;;;;;;8.02;5.30;;;;;;;;;;5093924;28;20203;-86
2022/08/19 11:32:05;;;;;;;7.90;5.60;;;;;;;;;;5063395;28;20016;-83
2022/08/19 11:34:30;;;;;;;8.90;5.35;;;;;;;;;;5088537;28;20046;-83
2022/08/19 11:36:59;;;;;;;9.20;5.50;;;;;;;;;;5085884;28;20024;-83
2022/08/19 11:39:29;;;;;;;10.82;5.47;;;;;;;;;;5089839;28;20024;-83
2022/08/19 11:41:55;;;;;;;7.38;5.45;;;;;;;;;;5077058;28;20496;-83
2022/08/19 11:44:20;;;;;;;9.85;5.90;;;;;;;;;;5095207;28;20035;-84
2022/08/19 11:46:46;;;;;;;8.75;5.75;;;;;;;;;;5072119;28;20018;-84
2022/08/19 11:49:21;;;;;;;11.27;5.20;;;;;;;;;;5072794;28;20425;-84
2022/08/19 11:51:47;;;;;;;10.38;5.78;;;;;;;;;;5092874;28;20023;-85
2022/08/19 11:54:14;;;;;;;10.82;4.93;;;;;;;;;;5074148;28;20040;-84
2022/08/19 11:56:40;;;;;;;7.93;5.60;;;;;;;;;;5094373;28;20020;-84
2022/08/19 11:59:05;;;;;;;7.00;5.13;;;;;;;;;;5094640;28;20020;-85
2022/08/19 12:01:31;;;;;;;8.32;5.10;;;;;;;;;;5091326;28;20016;-85
2022/08/19 12:03:57;;;;;;;7.95;5.45;;;;;;;;;;5098211;28;20032;-85
2022/08/19 12:06:29;;;;;;;7.35;5.30;;;;;;;;;;5099574;28;20020;-83
2022/08/19 12:09:01;;;;;;;8.95;5.70;;;;;;;;;;5080009;28;20089;-84
2022/08/19 12:11:26;;;;;;;;;;;;;;;;;;5091696;28;20024;-83
2022/08/19 12:13:52;;;;;;;11.57;5.80;;;;;;;;;;5078349;28;19909;-83
2022/08/19 12:16:23;;;;;;;7.28;5.50;;;;;;;;;;5060737;28;20035;-83
2022/08/19 12:18:50;;;;;;;9.60;5.78;;;;;;;;;;5085877;28;20024;-83
2022/08/19 12:21:20;;;;;;;9.98;5.15;;;;;;;;;;5091921;28;20024;-82
2022/08/19 12:23:46;;;;;;;8.20;6.38;;;;;;;;;;5097692;28;20016;-83
2022/08/19 12:26:12;;;;;;;6.85;5.28;;;;;;;;;;5092269;28;20074;-83
2022/08/19 12:28:37;;;;;;;12.02;5.93;;;;;;;;;;5098100;28;20035;-85
2022/08/19 12:31:04;;;;;;;7.45;5.65;;;;;;;;;;5086803;28;20100;-83
2022/08/19 12:33:29;;;;;;;7.72;5.05;;;;;;;;;;5088061;28;20028;-83
2022/08/19 12:35:59;;;;;;;8.23;5.47;;;;;;;;;;5097012;28;20036;-82
2022/08/19 12:38:24;;;;;;;6.90;5.00;;;;;;;;;;5097951;28;20131;-83
2022/08/19 12:40:51;;;;;;;7.10;5.18;;;;;;;;;;5097995;28;20047;-84
2022/08/19 12:43:18;;;;;;;8.32;4.97;;;;;;;;;;5098715;28;20020;-83
2022/08/19 12:45:44;;;;;;;6.72;4.90;;;;;;;;;;5093070;28;20031;-84
2022/08/19 12:48:10;;;;;;;6.63;5.25;;;;;;;;;;5079325;28;20027;-83
2022/08/19 12:50:36;;;;;;;7.60;5.03;;;;;;;;;;5090429;28;20020;-83
2022/08/19 12:53:01;;;;;;;6.82;4.88;;;;;;;;;;5097989;28;20051;-83
2022/08/19 12:55:28;;;;;;;7.35;4.68;;;;;;;;;;5094507;28;20059;-83
2022/08/19 12:57:54;;;;;;;6.63;4.55;;;;;;;;;;5097017;28;20081;-82
2022/08/19 13:00:21;;;;;;;6.05;4.40;;;;;;;;;;5096058;28;20024;-85
2022/08/19 13:02:50;;;;;;;9.65;5.70;;;;;;;;;;5095441;28;20028;-84
2022/08/19 13:05:28;;;;;;;8.63;5.65;;;;;;;;;;5097776;28;20031;-84
2022/08/19 13:07:56;;;;;;;7.43;5.40;;;;;;;;;;5087771;28;20032;-84
2022/08/19 13:10:24;;;;;;;6.95;4.85;;;;;;;;;;5076049;28;20016;-84
2022/08/19 13:12:51;;;;;;;9.02;5.90;;;;;;;;;;5069866;28;20024;-84
2022/08/19 13:15:20;;;;;;;9.27;5.30;;;;;;;;;;5077945;28;20042;-82
2022/08/19 13:17:48;;;;;;;8.57;5.57;;;;;;;;;;5096424;28;20034;-84
2022/08/19 13:20:15;;;;;;;7.75;5.25;;;;;;;;;;5084318;28;20048;-84
2022/08/19 13:22:42;;;;;;;12.52;5.60;;;;;;;;;;5092843;28;20024;-84
2022/08/19 13:25:08;;;;;;;10.32;5.63;;;;;;;;;;5099981;28;20020;-82
2022/08/19 13:27:35;;;;;;;10.32;5.82;;;;;;;;;;5116912;28;20024;-82
2022/08/19 13:35:29;;;;;;;7.03;4.75;;;;;;;;;;5113477;28;20018;-82
2022/08/19 13:37:54;;;;;;;7.45;5.25;;;;;;;;;;5117411;28;20032;-82
2022/08/19 13:40:23;;;;;;;11.80;7.80;;;;;;;;;;5115178;28;20008;-83
2022/08/19 13:45:21;;;;;;;22.92;11.77;;;;;;;;;;5018742;28;20507;-85
2022/08/19 13:47:48;;;;;;;23.05;13.65;;;;;;;;;;5020074;28;20026;-85
2022/08/19 13:50:19;;;;;;;19.20;12.57;;;;;;;;;;5018413;28;20018;-85
2022/08/19 13:52:45;;;;;;;24.50;13.20;;;;;;;;;;5027422;28;20585;-85
2022/08/19 13:55:12;;;;;;;21.73;14.45;;;;;;;;;;5036058;28;20036;-85
2022/08/19 13:57:41;;;;;;;21.85;14.40;;;;;;;;;;5039073;28;20021;-85
2022/08/19 14:00:13;;;;;;;22.88;14.95;;;;;;;;;;5039926;28;20022;-85
2022/08/19 14:02:39;;;;;;;20.17;13.60;;;;;;;;;;5026375;28;20026;-85
2022/08/19 14:05:08;;;;;;;19.73;14.77;;;;;;;;;;5022684;28;20032;-85
2022/08/19 14:07:33;;;;;;;22.92;15.45;;;;;;;;;;5039240;28;20112;-84
2022/08/19 14:09:59;;;;;;;23.65;14.70;;;;;;;;;;5038784;28;20057;-85
2022/08/19 14:12:24;;;;;;;28.05;16.13;;;;;;;;;;5007841;28;20025;-84
2022/08/19 14:14:50;;;;;;;23.30;16.02;;;;;;;;;;5018122;28;20423;-84
2022/08/19 14:17:16;;;;;;;20.27;15.00;;;;;;;;;;5019820;28;20029;-85
2022/08/19 14:19:42;;;;;;;21.25;14.23;;;;;;;;;;5026661;28;20440;-85
2022/08/19 14:22:08;;;;;;;24.90;17.05;;;;;;;;;;5017744;28;20468;-84
2022/08/19 14:24:34;;;;;;;23.63;16.00;;;;;;;;;;5018600;28;20053;-84
2022/08/19 14:27:00;;;;;;;23.98;16.63;;;;;;;;;;5018634;28;20026;-84
2022/08/19 14:29:27;;;;;;;25.95;16.73;;;;;;;;;;5018663;28;20049;-85
2022/08/19 14:31:52;;;;;;;25.25;15.55;;;;;;;;;;5023557;28;20014;-84
2022/08/19 14:34:18;;;;;;;20.45;15.30;;;;;;;;;;5024997;28;20551;-84
2022/08/19 14:36:44;;;;;;;24.73;16.08;;;;;;;;;;5019954;28;20022;-84
2022/08/19 14:39:11;;;;;;;26.15;16.38;;;;;;;;;;5030351;28;20067;-86
2022/08/19 14:41:40;;;;;;;22.40;15.25;;;;;;;;;;5038996;28;20022;-83
2022/08/19 14:44:06;;;;;;;26.05;15.60;;;;;;;;;;5039570;28;20384;-86
2022/08/19 14:46:31;;;;;;;20.08;15.10;;;;;;;;;;5043046;28;20059;-86
2022/08/19 14:48:57;;;;;;;20.00;14.73;;;;;;;;;;5042041;28;20048;-85
2022/08/19 14:51:24;;;;;;;23.63;15.15;;;;;;;;;;5032351;28;20044;-85
2022/08/19 14:53:50;;;;;;;20.95;15.13;;;;;;;;;;5042355;28;20026;-86
2022/08/19 14:56:19;;;;;;;21.02;15.20;;;;;;;;;;5035903;28;20036;-85